sensor_id;sensor_type;location;lat;lon;timestamp;temperature;humidity
22734;DHT22;11534;51.994;5.692;2023-04-30T00:01:43;9.00;99.90
22734;DHT22;11534;51.994;5.692;2023-04-30T00:04:08;8.90;99.90
22734;DHT22;11534;51.994;5.692;2023-04-30T00:06:34;8.90;99.90
22734;DHT22;11534;51.994;5.692;2023-04-30T00:08:59;8.90;99.90
22734;DHT22;11534;51.994;5.692;2023-04-30T00:11:25;8.80;99.90
22734;DHT22;11534;51.994;5.692;2023-04-30T00:13:51;8.80;99.90
22734;DHT22;11534;51.994;5.692;2023-04-30T00:16:17;8.70;99.90
22734;DHT22;11534;51.994;5.692;2023-04-30T00:18:43;8.60;99.90
22734;DHT22;11534;51.994;5.692;2023-04-30T00:21:08;8.60;99.90
22734;DHT22;11534;51.994;5.692;2023-04-30T00:23:34;8.60;99.90
22734;DHT22;11534;51.994;5.692;2023-04-30T00:26:00;8.60;99.90
22734;DHT22;11534;51.994;5.692;2023-04-30T00:28:26;8.50;99.90
22734;DHT22;11534;51.994;5.692;2023-04-30T00:30:51;8.50;99.90
22734;DHT22;11534;51.994;5.692;2023-04-30T00:33:17;8.50;99.90
22734;DHT22;11534;51.994;5.692;2023-04-30T00:35:43;8.50;99.90
22734;DHT22;11534;51.994;5.692;2023-04-30T00:38:09;8.50;99.90
22734;DHT22;11534;51.994;5.692;2023-04-30T00:40:35;8.40;99.90
22734;DHT22;11534;51.994;5.692;2023-04-30T00:43:02;8.40;99.90
22734;DHT22;11534;51.994;5.692;2023-04-30T00:45:27;8.40;99.90
22734;DHT22;11534;51.994;5.692;2023-04-30T00:47:53;8.30;99.90
22734;DHT22;11534;51.994;5.692;2023-04-30T00:50:19;8.30;99.90
22734;DHT22;11534;51.994;5.692;2023-04-30T00:52:45;8.20;99.90
22734;DHT22;11534;51.994;5.692;2023-04-30T00:55:11;8.20;99.90
22734;DHT22;11534;51.994;5.692;2023-04-30T00:57:38;8.20;99.90
22734;DHT22;11534;51.994;5.692;2023-04-30T01:00:06;8.30;99.90
22734;DHT22;11534;51.994;5.692;2023-04-30T01:02:39;8.30;99.90
22734;DHT22;11534;51.994;5.692;2023-04-30T01:05:06;8.20;99.90
22734;DHT22;11534;51.994;5.692;2023-04-30T01:07:34;8.20;99.90
22734;DHT22;11534;51.994;5.692;2023-04-30T01:10:00;8.20;99.90
22734;DHT22;11534;51.994;5.692;2023-04-30T01:15:14;8.20;99.90
22734;DHT22;11534;51.994;5.692;2023-04-30T01:17:54;8.20;99.90
22734;DHT22;11534;51.994;5.692;2023-04-30T01:20:21;8.20;99.90
22734;DHT22;11534;51.994;5.692;2023-04-30T01:25:43;8.10;99.90
22734;DHT22;11534;51.994;5.692;2023-04-30T01:28:17;8.10;99.90
22734;DHT22;11534;51.994;5.692;2023-04-30T01:30:46;8.10;99.90
22734;DHT22;11534;51.994;5.692;2023-04-30T01:33:12;8.00;99.90
22734;DHT22;11534;51.994;5.692;2023-04-30T01:41:44;7.90;99.90
22734;DHT22;11534;51.994;5.692;2023-04-30T01:53:04;7.80;99.90
22734;DHT22;11534;51.994;5.692;2023-04-30T01:55:45;7.80;99.90
22734;DHT22;11534;51.994;5.692;2023-04-30T01:58:14;7.70;99.90
22734;DHT22;11534;51.994;5.692;2023-04-30T02:00:40;7.70;99.90
22734;DHT22;11534;51.994;5.692;2023-04-30T02:03:06;7.70;99.90
22734;DHT22;11534;51.994;5.692;2023-04-30T02:05:32;7.70;99.90
22734;DHT22;11534;51.994;5.692;2023-04-30T02:07:58;7.70;99.90
22734;DHT22;11534;51.994;5.692;2023-04-30T02:10:25;7.70;99.90
22734;DHT22;11534;51.994;5.692;2023-04-30T02:12:51;7.70;99.90
22734;DHT22;11534;51.994;5.692;2023-04-30T02:15:17;7.60;99.90
22734;DHT22;11534;51.994;5.692;2023-04-30T02:17:43;7.60;99.90
22734;DHT22;11534;51.994;5.692;2023-04-30T02:20:09;7.60;99.90
22734;DHT22;11534;51.994;5.692;2023-04-30T02:22:35;7.50;99.90
22734;DHT22;11534;51.994;5.692;2023-04-30T02:25:02;7.50;99.90
22734;DHT22;11534;51.994;5.692;2023-04-30T02:27:30;7.50;99.90
22734;DHT22;11534;51.994;5.692;2023-04-30T02:29:56;7.40;99.90
22734;DHT22;11534;51.994;5.692;2023-04-30T02:32:22;7.40;99.90
22734;DHT22;11534;51.994;5.692;2023-04-30T02:34:48;7.30;99.90
22734;DHT22;11534;51.994;5.692;2023-04-30T02:37:14;7.30;99.90
22734;DHT22;11534;51.994;5.692;2023-04-30T02:39:40;7.30;99.90
22734;DHT22;11534;51.994;5.692;2023-04-30T02:42:06;7.30;99.90
22734;DHT22;11534;51.994;5.692;2023-04-30T02:44:32;7.30;99.90
22734;DHT22;11534;51.994;5.692;2023-04-30T02:46:59;7.30;99.90
22734;DHT22;11534;51.994;5.692;2023-04-30T02:49:25;7.30;99.90
22734;DHT22;11534;51.994;5.692;2023-04-30T02:51:51;7.30;99.90
22734;DHT22;11534;51.994;5.692;2023-04-30T02:54:17;7.20;99.90
22734;DHT22;11534;51.994;5.692;2023-04-30T02:56:43;7.30;99.90
22734;DHT22;11534;51.994;5.692;2023-04-30T02:59:09;7.30;99.90
22734;DHT22;11534;51.994;5.692;2023-04-30T03:01:34;7.30;99.90
22734;DHT22;11534;51.994;5.692;2023-04-30T03:04:00;7.30;99.90
22734;DHT22;11534;51.994;5.692;2023-04-30T03:06:28;7.30;99.90
22734;DHT22;11534;51.994;5.692;2023-04-30T03:08:54;7.30;99.90
22734;DHT22;11534;51.994;5.692;2023-04-30T03:11:19;7.30;99.90
22734;DHT22;11534;51.994;5.692;2023-04-30T03:13:47;7.30;99.90
22734;DHT22;11534;51.994;5.692;2023-04-30T03:16:17;7.30;99.90
22734;DHT22;11534;51.994;5.692;2023-04-30T03:18:43;7.30;99.90
22734;DHT22;11534;51.994;5.692;2023-04-30T03:21:09;7.30;99.90
22734;DHT22;11534;51.994;5.692;2023-04-30T03:23:35;7.30;99.90
22734;DHT22;11534;51.994;5.692;2023-04-30T03:26:01;7.30;99.90
22734;DHT22;11534;51.994;5.692;2023-04-30T03:28:26;7.30;99.90
22734;DHT22;11534;51.994;5.692;2023-04-30T03:30:52;7.30;99.90
22734;DHT22;11534;51.994;5.692;2023-04-30T03:33:18;7.30;99.90
22734;DHT22;11534;51.994;5.692;2023-04-30T03:35:43;7.30;99.90
22734;DHT22;11534;51.994;5.692;2023-04-30T03:38:09;7.20;99.90
22734;DHT22;11534;51.994;5.692;2023-04-30T03:40:35;7.20;99.90
22734;DHT22;11534;51.994;5.692;2023-04-30T03:43:00;7.20;99.90
22734;DHT22;11534;51.994;5.692;2023-04-30T03:45:26;7.10;99.90
22734;DHT22;11534;51.994;5.692;2023-04-30T03:47:51;7.20;99.90
22734;DHT22;11534;51.994;5.692;2023-04-30T03:50:18;7.10;99.90
22734;DHT22;11534;51.994;5.692;2023-04-30T03:52:44;7.10;99.90
22734;DHT22;11534;51.994;5.692;2023-04-30T03:55:10;7.10;99.90
22734;DHT22;11534;51.994;5.692;2023-04-30T03:57:36;7.10;99.90
22734;DHT22;11534;51.994;5.692;2023-04-30T04:00:03;7.10;99.90
22734;DHT22;11534;51.994;5.692;2023-04-30T04:02:34;7.10;99.90
22734;DHT22;11534;51.994;5.692;2023-04-30T04:04:59;7.10;99.90
22734;DHT22;11534;51.994;5.692;2023-04-30T04:07:25;7.10;99.90
22734;DHT22;11534;51.994;5.692;2023-04-30T04:09:50;7.10;99.90
22734;DHT22;11534;51.994;5.692;2023-04-30T04:12:16;7.10;99.90
22734;DHT22;11534;51.994;5.692;2023-04-30T04:14:42;7.10;99.90
22734;DHT22;11534;51.994;5.692;2023-04-30T04:17:07;7.10;99.90
22734;DHT22;11534;51.994;5.692;2023-04-30T04:19:33;7.10;99.90
22734;DHT22;11534;51.994;5.692;2023-04-30T04:21:58;7.10;99.90
22734;DHT22;11534;51.994;5.692;2023-04-30T04:24:25;7.10;99.90
22734;DHT22;11534;51.994;5.692;2023-04-30T04:26:51;7.10;99.90
22734;DHT22;11534;51.994;5.692;2023-04-30T04:29:17;7.10;99.90
22734;DHT22;11534;51.994;5.692;2023-04-30T04:31:43;7.10;99.90
22734;DHT22;11534;51.994;5.692;2023-04-30T04:34:09;7.10;99.90
22734;DHT22;11534;51.994;5.692;2023-04-30T04:36:35;7.10;99.90
22734;DHT22;11534;51.994;5.692;2023-04-30T04:39:01;7.10;99.90
22734;DHT22;11534;51.994;5.692;2023-04-30T04:41:31;7.10;99.90
22734;DHT22;11534;51.994;5.692;2023-04-30T04:43:57;7.00;99.90
22734;DHT22;11534;51.994;5.692;2023-04-30T04:46:23;7.00;99.90
22734;DHT22;11534;51.994;5.692;2023-04-30T04:48:49;7.00;99.90
22734;DHT22;11534;51.994;5.692;2023-04-30T04:51:15;7.00;99.90
22734;DHT22;11534;51.994;5.692;2023-04-30T04:53:41;7.00;99.90
22734;DHT22;11534;51.994;5.692;2023-04-30T04:56:06;7.00;99.90
22734;DHT22;11534;51.994;5.692;2023-04-30T04:58:33;7.10;99.90
22734;DHT22;11534;51.994;5.692;2023-04-30T05:00:59;7.10;99.90
22734;DHT22;11534;51.994;5.692;2023-04-30T05:03:26;7.10;99.90
22734;DHT22;11534;51.994;5.692;2023-04-30T05:05:52;7.10;99.90
22734;DHT22;11534;51.994;5.692;2023-04-30T05:08:18;7.10;99.90
22734;DHT22;11534;51.994;5.692;2023-04-30T05:10:43;7.10;99.90
22734;DHT22;11534;51.994;5.692;2023-04-30T05:13:09;7.10;99.90
22734;DHT22;11534;51.994;5.692;2023-04-30T05:15:36;7.10;99.90
22734;DHT22;11534;51.994;5.692;2023-04-30T05:18:01;7.10;99.90
22734;DHT22;11534;51.994;5.692;2023-04-30T05:20:27;7.10;99.90
22734;DHT22;11534;51.994;5.692;2023-04-30T05:22:52;7.10;99.90
22734;DHT22;11534;51.994;5.692;2023-04-30T05:25:18;7.10;99.90
22734;DHT22;11534;51.994;5.692;2023-04-30T05:27:44;7.10;99.90
22734;DHT22;11534;51.994;5.692;2023-04-30T05:30:10;7.10;99.90
22734;DHT22;11534;51.994;5.692;2023-04-30T05:32:35;7.10;99.90
22734;DHT22;11534;51.994;5.692;2023-04-30T05:35:01;7.20;99.90
22734;DHT22;11534;51.994;5.692;2023-04-30T05:37:27;7.20;99.90
22734;DHT22;11534;51.994;5.692;2023-04-30T05:39:52;7.20;99.90
22734;DHT22;11534;51.994;5.692;2023-04-30T05:42:19;7.30;99.90
22734;DHT22;11534;51.994;5.692;2023-04-30T05:44:45;7.20;99.90
22734;DHT22;11534;51.994;5.692;2023-04-30T05:47:10;7.30;99.90
22734;DHT22;11534;51.994;5.692;2023-04-30T05:49:36;7.30;99.90
22734;DHT22;11534;51.994;5.692;2023-04-30T05:52:02;7.30;99.90
22734;DHT22;11534;51.994;5.692;2023-04-30T05:54:28;7.40;99.90
22734;DHT22;11534;51.994;5.692;2023-04-30T05:56:54;7.50;99.90
22734;DHT22;11534;51.994;5.692;2023-04-30T05:59:20;7.50;99.90
22734;DHT22;11534;51.994;5.692;2023-04-30T06:01:45;7.50;99.90
22734;DHT22;11534;51.994;5.692;2023-04-30T06:04:11;7.60;99.90
22734;DHT22;11534;51.994;5.692;2023-04-30T06:06:37;7.70;99.90
22734;DHT22;11534;51.994;5.692;2023-04-30T06:09:03;7.70;99.90
22734;DHT22;11534;51.994;5.692;2023-04-30T06:11:29;7.80;99.90
22734;DHT22;11534;51.994;5.692;2023-04-30T06:13:55;7.90;99.90
22734;DHT22;11534;51.994;5.692;2023-04-30T06:16:21;7.90;99.90
22734;DHT22;11534;51.994;5.692;2023-04-30T06:18:47;8.00;99.90
22734;DHT22;11534;51.994;5.692;2023-04-30T06:21:13;8.10;99.90
22734;DHT22;11534;51.994;5.692;2023-04-30T06:23:39;8.20;99.90
22734;DHT22;11534;51.994;5.692;2023-04-30T06:26:04;8.20;99.90
22734;DHT22;11534;51.994;5.692;2023-04-30T06:28:30;8.30;99.90
22734;DHT22;11534;51.994;5.692;2023-04-30T06:30:55;8.30;99.90
22734;DHT22;11534;51.994;5.692;2023-04-30T06:33:21;8.40;99.90
22734;DHT22;11534;51.994;5.692;2023-04-30T06:35:47;8.50;99.90
22734;DHT22;11534;51.994;5.692;2023-04-30T06:38:15;8.50;99.90
22734;DHT22;11534;51.994;5.692;2023-04-30T06:40:42;8.60;99.90
22734;DHT22;11534;51.994;5.692;2023-04-30T06:43:08;8.70;99.90
22734;DHT22;11534;51.994;5.692;2023-04-30T06:45:34;8.80;99.90
22734;DHT22;11534;51.994;5.692;2023-04-30T06:48:00;8.90;99.90
22734;DHT22;11534;51.994;5.692;2023-04-30T06:50:26;8.90;99.90
22734;DHT22;11534;51.994;5.692;2023-04-30T06:52:52;9.00;99.90
22734;DHT22;11534;51.994;5.692;2023-04-30T06:55:18;9.10;99.90
22734;DHT22;11534;51.994;5.692;2023-04-30T06:57:43;9.30;99.90
22734;DHT22;11534;51.994;5.692;2023-04-30T07:00:10;9.30;99.90
22734;DHT22;11534;51.994;5.692;2023-04-30T07:02:36;9.40;99.90
22734;DHT22;11534;51.994;5.692;2023-04-30T07:05:03;9.50;99.90
22734;DHT22;11534;51.994;5.692;2023-04-30T07:07:28;9.50;99.90
22734;DHT22;11534;51.994;5.692;2023-04-30T07:09:54;9.60;99.90
22734;DHT22;11534;51.994;5.692;2023-04-30T07:12:20;9.70;99.90
22734;DHT22;11534;51.994;5.692;2023-04-30T07:14:46;9.70;99.90
22734;DHT22;11534;51.994;5.692;2023-04-30T07:17:12;9.80;99.90
22734;DHT22;11534;51.994;5.692;2023-04-30T07:19:38;9.80;99.90
22734;DHT22;11534;51.994;5.692;2023-04-30T07:22:03;9.90;99.90
22734;DHT22;11534;51.994;5.692;2023-04-30T07:24:29;9.90;99.90
22734;DHT22;11534;51.994;5.692;2023-04-30T07:26:55;10.00;99.90
22734;DHT22;11534;51.994;5.692;2023-04-30T07:29:21;10.10;99.90
22734;DHT22;11534;51.994;5.692;2023-04-30T07:31:46;10.20;99.90
22734;DHT22;11534;51.994;5.692;2023-04-30T07:34:12;10.30;99.90
22734;DHT22;11534;51.994;5.692;2023-04-30T07:36:38;10.40;99.90
22734;DHT22;11534;51.994;5.692;2023-04-30T07:39:04;10.60;99.90
22734;DHT22;11534;51.994;5.692;2023-04-30T07:41:30;10.70;99.90
22734;DHT22;11534;51.994;5.692;2023-04-30T07:43:56;10.80;99.90
22734;DHT22;11534;51.994;5.692;2023-04-30T07:46:23;10.80;99.90
22734;DHT22;11534;51.994;5.692;2023-04-30T07:48:50;11.00;99.90
22734;DHT22;11534;51.994;5.692;2023-04-30T07:51:15;11.10;99.90
22734;DHT22;11534;51.994;5.692;2023-04-30T07:53:41;11.30;99.90
22734;DHT22;11534;51.994;5.692;2023-04-30T07:56:07;11.40;99.90
22734;DHT22;11534;51.994;5.692;2023-04-30T07:58:33;11.60;99.90
22734;DHT22;11534;51.994;5.692;2023-04-30T08:00:58;11.70;99.90
22734;DHT22;11534;51.994;5.692;2023-04-30T08:03:24;11.80;99.90
22734;DHT22;11534;51.994;5.692;2023-04-30T08:05:51;11.80;99.90
22734;DHT22;11534;51.994;5.692;2023-04-30T08:08:17;11.80;99.90
22734;DHT22;11534;51.994;5.692;2023-04-30T08:10:42;11.90;99.90
22734;DHT22;11534;51.994;5.692;2023-04-30T08:13:08;12.10;99.90
22734;DHT22;11534;51.994;5.692;2023-04-30T08:15:34;11.90;99.90
22734;DHT22;11534;51.994;5.692;2023-04-30T08:18:00;12.00;99.90
22734;DHT22;11534;51.994;5.692;2023-04-30T08:20:25;12.00;99.90
22734;DHT22;11534;51.994;5.692;2023-04-30T08:22:51;12.00;99.90
22734;DHT22;11534;51.994;5.692;2023-04-30T08:25:16;12.00;99.90
22734;DHT22;11534;51.994;5.692;2023-04-30T08:27:42;12.00;99.90
22734;DHT22;11534;51.994;5.692;2023-04-30T08:30:08;12.00;99.90
22734;DHT22;11534;51.994;5.692;2023-04-30T08:32:34;12.00;99.90
22734;DHT22;11534;51.994;5.692;2023-04-30T08:35:04;12.10;99.90
22734;DHT22;11534;51.994;5.692;2023-04-30T08:37:30;12.10;99.90
22734;DHT22;11534;51.994;5.692;2023-04-30T08:39:56;11.80;99.90
22734;DHT22;11534;51.994;5.692;2023-04-30T08:42:26;11.80;99.90
22734;DHT22;11534;51.994;5.692;2023-04-30T08:44:54;11.80;99.90
22734;DHT22;11534;51.994;5.692;2023-04-30T08:47:20;11.90;99.90
22734;DHT22;11534;51.994;5.692;2023-04-30T08:49:46;11.90;99.90
22734;DHT22;11534;51.994;5.692;2023-04-30T08:52:12;12.00;99.90
22734;DHT22;11534;51.994;5.692;2023-04-30T08:54:38;12.00;99.90
22734;DHT22;11534;51.994;5.692;2023-04-30T08:57:04;12.00;99.90
22734;DHT22;11534;51.994;5.692;2023-04-30T08:59:30;12.00;99.90
22734;DHT22;11534;51.994;5.692;2023-04-30T09:01:56;12.20;99.90
22734;DHT22;11534;51.994;5.692;2023-04-30T09:04:22;12.20;99.90
22734;DHT22;11534;51.994;5.692;2023-04-30T09:06:47;12.30;99.90
22734;DHT22;11534;51.994;5.692;2023-04-30T09:09:14;12.40;99.90
22734;DHT22;11534;51.994;5.692;2023-04-30T09:11:41;12.30;99.90
22734;DHT22;11534;51.994;5.692;2023-04-30T09:14:07;12.40;99.90
22734;DHT22;11534;51.994;5.692;2023-04-30T09:16:47;12.50;99.90
22734;DHT22;11534;51.994;5.692;2023-04-30T09:19:31;12.60;99.90
22734;DHT22;11534;51.994;5.692;2023-04-30T09:21:57;12.70;99.90
22734;DHT22;11534;51.994;5.692;2023-04-30T09:24:23;12.80;99.90
22734;DHT22;11534;51.994;5.692;2023-04-30T09:26:49;12.80;99.90
22734;DHT22;11534;51.994;5.692;2023-04-30T09:29:16;13.00;99.90
22734;DHT22;11534;51.994;5.692;2023-04-30T09:31:45;13.10;99.90
22734;DHT22;11534;51.994;5.692;2023-04-30T09:34:12;13.10;99.90
22734;DHT22;11534;51.994;5.692;2023-04-30T09:36:51;13.10;99.90
22734;DHT22;11534;51.994;5.692;2023-04-30T09:39:17;13.20;99.90
22734;DHT22;11534;51.994;5.692;2023-04-30T09:41:43;13.40;99.90
22734;DHT22;11534;51.994;5.692;2023-04-30T09:44:26;13.30;99.90
22734;DHT22;11534;51.994;5.692;2023-04-30T09:46:52;13.40;99.90
22734;DHT22;11534;51.994;5.692;2023-04-30T09:49:18;13.50;99.90
22734;DHT22;11534;51.994;5.692;2023-04-30T09:52:14;13.50;99.90
22734;DHT22;11534;51.994;5.692;2023-04-30T09:54:40;13.60;99.90
22734;DHT22;11534;51.994;5.692;2023-04-30T09:57:09;13.80;99.90
22734;DHT22;11534;51.994;5.692;2023-04-30T09:59:36;13.80;99.90
22734;DHT22;11534;51.994;5.692;2023-04-30T10:02:07;14.00;99.90
22734;DHT22;11534;51.994;5.692;2023-04-30T10:04:38;14.10;99.90
22734;DHT22;11534;51.994;5.692;2023-04-30T10:07:16;14.10;99.90
22734;DHT22;11534;51.994;5.692;2023-04-30T10:10:06;14.30;99.90
22734;DHT22;11534;51.994;5.692;2023-04-30T10:12:56;14.50;99.90
22734;DHT22;11534;51.994;5.692;2023-04-30T10:15:31;14.70;99.90
22734;DHT22;11534;51.994;5.692;2023-04-30T10:18:03;14.90;99.90
22734;DHT22;11534;51.994;5.692;2023-04-30T10:20:30;15.00;99.90
22734;DHT22;11534;51.994;5.692;2023-04-30T10:22:59;15.20;99.90
22734;DHT22;11534;51.994;5.692;2023-04-30T10:25:26;15.40;99.90
22734;DHT22;11534;51.994;5.692;2023-04-30T10:27:52;15.60;99.90
22734;DHT22;11534;51.994;5.692;2023-04-30T10:30:18;16.00;99.90
22734;DHT22;11534;51.994;5.692;2023-04-30T10:35:59;16.30;99.90
22734;DHT22;11534;51.994;5.692;2023-04-30T10:38:28;16.50;99.90
22734;DHT22;11534;51.994;5.692;2023-04-30T10:40:55;16.80;99.90
22734;DHT22;11534;51.994;5.692;2023-04-30T10:43:26;17.00;99.90
22734;DHT22;11534;51.994;5.692;2023-04-30T10:45:51;17.20;99.90
22734;DHT22;11534;51.994;5.692;2023-04-30T10:48:21;17.20;99.90
22734;DHT22;11534;51.994;5.692;2023-04-30T10:50:53;17.50;99.90
22734;DHT22;11534;51.994;5.692;2023-04-30T10:53:20;17.70;99.90
22734;DHT22;11534;51.994;5.692;2023-04-30T10:56:01;18.00;99.90
22734;DHT22;11534;51.994;5.692;2023-04-30T10:58:32;18.20;99.90
22734;DHT22;11534;51.994;5.692;2023-04-30T11:01:12;18.40;99.90
22734;DHT22;11534;51.994;5.692;2023-04-30T11:04:03;18.50;99.90
22734;DHT22;11534;51.994;5.692;2023-04-30T11:07:06;18.50;99.90
22734;DHT22;11534;51.994;5.692;2023-04-30T11:09:43;18.90;99.90
22734;DHT22;11534;51.994;5.692;2023-04-30T11:12:29;19.10;99.90
22734;DHT22;11534;51.994;5.692;2023-04-30T11:15:16;19.40;99.90
22734;DHT22;11534;51.994;5.692;2023-04-30T11:17:43;19.70;99.90
22734;DHT22;11534;51.994;5.692;2023-04-30T11:20:13;19.60;99.90
22734;DHT22;11534;51.994;5.692;2023-04-30T11:22:39;19.70;99.90
22734;DHT22;11534;51.994;5.692;2023-04-30T11:25:07;20.10;99.90
22734;DHT22;11534;51.994;5.692;2023-04-30T11:27:40;19.80;99.90
22734;DHT22;11534;51.994;5.692;2023-04-30T11:30:16;19.70;99.90
22734;DHT22;11534;51.994;5.692;2023-04-30T11:32:47;19.90;99.90
22734;DHT22;11534;51.994;5.692;2023-04-30T11:35:16;19.80;99.90
22734;DHT22;11534;51.994;5.692;2023-04-30T11:37:43;20.00;99.90
22734;DHT22;11534;51.994;5.692;2023-04-30T11:40:11;20.10;99.90
22734;DHT22;11534;51.994;5.692;2023-04-30T11:42:38;20.20;99.90
22734;DHT22;11534;51.994;5.692;2023-04-30T11:45:09;20.50;99.90
22734;DHT22;11534;51.994;5.692;2023-04-30T11:47:43;20.90;99.90
22734;DHT22;11534;51.994;5.692;2023-04-30T11:50:14;20.80;99.90
22734;DHT22;11534;51.994;5.692;2023-04-30T11:52:41;20.70;99.90
22734;DHT22;11534;51.994;5.692;2023-04-30T11:55:18;20.50;99.90
22734;DHT22;11534;51.994;5.692;2023-04-30T11:57:45;20.70;99.90
22734;DHT22;11534;51.994;5.692;2023-04-30T12:00:16;21.00;99.90
22734;DHT22;11534;51.994;5.692;2023-04-30T12:02:44;21.30;99.90
22734;DHT22;11534;51.994;5.692;2023-04-30T12:05:17;21.70;99.90
22734;DHT22;11534;51.994;5.692;2023-04-30T12:07:55;21.80;99.90
22734;DHT22;11534;51.994;5.692;2023-04-30T12:10:22;21.90;99.90
22734;DHT22;11534;51.994;5.692;2023-04-30T12:12:49;22.40;99.90
22734;DHT22;11534;51.994;5.692;2023-04-30T12:15:17;21.80;99.90
22734;DHT22;11534;51.994;5.692;2023-04-30T12:17:44;21.90;99.90
22734;DHT22;11534;51.994;5.692;2023-04-30T12:20:12;22.20;99.90
22734;DHT22;11534;51.994;5.692;2023-04-30T12:22:39;21.40;99.90
22734;DHT22;11534;51.994;5.692;2023-04-30T12:25:07;21.30;99.90
22734;DHT22;11534;51.994;5.692;2023-04-30T12:27:35;20.80;99.90
22734;DHT22;11534;51.994;5.692;2023-04-30T12:30:10;20.30;99.90
22734;DHT22;11534;51.994;5.692;2023-04-30T12:32:39;19.50;99.90
22734;DHT22;11534;51.994;5.692;2023-04-30T12:35:06;19.20;99.90
22734;DHT22;11534;51.994;5.692;2023-04-30T12:37:32;19.00;99.90
22734;DHT22;11534;51.994;5.692;2023-04-30T12:39:58;18.70;99.90
22734;DHT22;11534;51.994;5.692;2023-04-30T12:42:24;18.50;99.90
22734;DHT22;11534;51.994;5.692;2023-04-30T12:44:50;18.50;99.90
22734;DHT22;11534;51.994;5.692;2023-04-30T12:47:16;18.90;99.90
22734;DHT22;11534;51.994;5.692;2023-04-30T12:49:44;19.60;99.90
22734;DHT22;11534;51.994;5.692;2023-04-30T12:52:12;20.40;99.90
22734;DHT22;11534;51.994;5.692;2023-04-30T12:54:38;20.80;99.90
22734;DHT22;11534;51.994;5.692;2023-04-30T12:57:11;20.50;99.90
22734;DHT22;11534;51.994;5.692;2023-04-30T13:02:21;19.80;99.90
22734;DHT22;11534;51.994;5.692;2023-04-30T13:04:48;19.70;99.90
22734;DHT22;11534;51.994;5.692;2023-04-30T13:07:15;19.50;99.90
22734;DHT22;11534;51.994;5.692;2023-04-30T13:09:41;19.40;99.90
22734;DHT22;11534;51.994;5.692;2023-04-30T13:12:07;19.20;99.90
22734;DHT22;11534;51.994;5.692;2023-04-30T13:14:33;19.00;99.90
22734;DHT22;11534;51.994;5.692;2023-04-30T13:16:59;19.50;99.90
22734;DHT22;11534;51.994;5.692;2023-04-30T13:19:29;19.80;99.90
22734;DHT22;11534;51.994;5.692;2023-04-30T13:21:55;20.00;99.90
22734;DHT22;11534;51.994;5.692;2023-04-30T13:24:21;20.00;99.90
22734;DHT22;11534;51.994;5.692;2023-04-30T13:26:46;19.70;99.90
22734;DHT22;11534;51.994;5.692;2023-04-30T13:29:12;19.40;99.90
22734;DHT22;11534;51.994;5.692;2023-04-30T13:31:38;19.20;99.90
22734;DHT22;11534;51.994;5.692;2023-04-30T13:34:03;18.90;99.90
22734;DHT22;11534;51.994;5.692;2023-04-30T13:36:29;18.70;99.90
22734;DHT22;11534;51.994;5.692;2023-04-30T13:38:55;18.80;99.90
22734;DHT22;11534;51.994;5.692;2023-04-30T13:41:20;19.40;99.90
22734;DHT22;11534;51.994;5.692;2023-04-30T13:43:47;20.00;99.90
22734;DHT22;11534;51.994;5.692;2023-04-30T13:46:13;19.70;99.90
22734;DHT22;11534;51.994;5.692;2023-04-30T13:48:39;19.90;99.90
22734;DHT22;11534;51.994;5.692;2023-04-30T13:51:05;20.50;99.90
22734;DHT22;11534;51.994;5.692;2023-04-30T13:53:31;20.90;99.90
22734;DHT22;11534;51.994;5.692;2023-04-30T13:55:57;21.00;99.90
22734;DHT22;11534;51.994;5.692;2023-04-30T13:58:24;21.30;99.90
22734;DHT22;11534;51.994;5.692;2023-04-30T14:00:50;21.30;99.90
22734;DHT22;11534;51.994;5.692;2023-04-30T14:03:17;21.10;99.90
22734;DHT22;11534;51.994;5.692;2023-04-30T14:05:43;20.90;99.90
22734;DHT22;11534;51.994;5.692;2023-04-30T14:08:08;20.90;99.90
22734;DHT22;11534;51.994;5.692;2023-04-30T14:10:34;20.20;99.90
22734;DHT22;11534;51.994;5.692;2023-04-30T14:13:00;20.10;99.90
22734;DHT22;11534;51.994;5.692;2023-04-30T14:15:26;20.10;99.90
22734;DHT22;11534;51.994;5.692;2023-04-30T14:17:54;20.10;99.90
22734;DHT22;11534;51.994;5.692;2023-04-30T14:20:20;20.00;99.90
22734;DHT22;11534;51.994;5.692;2023-04-30T14:22:46;20.40;99.90
22734;DHT22;11534;51.994;5.692;2023-04-30T14:25:11;20.60;99.90
22734;DHT22;11534;51.994;5.692;2023-04-30T14:27:38;20.90;99.90
22734;DHT22;11534;51.994;5.692;2023-04-30T14:30:04;20.40;99.90
22734;DHT22;11534;51.994;5.692;2023-04-30T14:32:30;20.10;99.90
22734;DHT22;11534;51.994;5.692;2023-04-30T14:34:56;20.10;99.90
22734;DHT22;11534;51.994;5.692;2023-04-30T14:37:21;19.50;99.90
22734;DHT22;11534;51.994;5.692;2023-04-30T14:39:48;19.40;99.90
22734;DHT22;11534;51.994;5.692;2023-04-30T14:42:14;19.40;99.90
22734;DHT22;11534;51.994;5.692;2023-04-30T14:44:40;19.50;99.90
22734;DHT22;11534;51.994;5.692;2023-04-30T14:47:05;19.40;99.90
22734;DHT22;11534;51.994;5.692;2023-04-30T14:49:31;19.30;99.90
22734;DHT22;11534;51.994;5.692;2023-04-30T14:51:56;19.10;99.90
22734;DHT22;11534;51.994;5.692;2023-04-30T14:54:22;19.10;99.90
22734;DHT22;11534;51.994;5.692;2023-04-30T14:56:48;19.00;99.90
22734;DHT22;11534;51.994;5.692;2023-04-30T14:59:14;18.80;99.90
22734;DHT22;11534;51.994;5.692;2023-04-30T15:01:40;18.80;99.90
22734;DHT22;11534;51.994;5.692;2023-04-30T15:04:06;18.70;99.90
22734;DHT22;11534;51.994;5.692;2023-04-30T15:06:31;18.50;99.90
22734;DHT22;11534;51.994;5.692;2023-04-30T15:08:58;18.50;99.90
22734;DHT22;11534;51.994;5.692;2023-04-30T15:11:23;18.60;99.90
22734;DHT22;11534;51.994;5.692;2023-04-30T15:13:49;18.70;99.90
22734;DHT22;11534;51.994;5.692;2023-04-30T15:16:15;18.80;99.90
22734;DHT22;11534;51.994;5.692;2023-04-30T15:18:42;18.90;99.90
22734;DHT22;11534;51.994;5.692;2023-04-30T15:21:08;18.90;99.90
22734;DHT22;11534;51.994;5.692;2023-04-30T15:23:33;18.80;99.90
22734;DHT22;11534;51.994;5.692;2023-04-30T15:26:00;18.70;99.90
22734;DHT22;11534;51.994;5.692;2023-04-30T15:28:26;18.50;99.90
22734;DHT22;11534;51.994;5.692;2023-04-30T15:30:52;18.50;99.90
22734;DHT22;11534;51.994;5.692;2023-04-30T15:33:18;18.50;99.90
22734;DHT22;11534;51.994;5.692;2023-04-30T15:35:44;18.50;99.90
22734;DHT22;11534;51.994;5.692;2023-04-30T15:38:10;18.50;99.90
22734;DHT22;11534;51.994;5.692;2023-04-30T15:40:36;18.60;99.90
22734;DHT22;11534;51.994;5.692;2023-04-30T15:43:03;18.50;99.90
22734;DHT22;11534;51.994;5.692;2023-04-30T15:45:29;18.60;99.90
22734;DHT22;11534;51.994;5.692;2023-04-30T15:47:56;18.40;99.90
22734;DHT22;11534;51.994;5.692;2023-04-30T15:50:22;18.50;99.90
22734;DHT22;11534;51.994;5.692;2023-04-30T15:52:47;18.60;99.90
22734;DHT22;11534;51.994;5.692;2023-04-30T15:55:13;18.60;99.90
22734;DHT22;11534;51.994;5.692;2023-04-30T15:57:39;18.40;99.90
22734;DHT22;11534;51.994;5.692;2023-04-30T16:00:05;18.30;99.90
22734;DHT22;11534;51.994;5.692;2023-04-30T16:02:33;18.30;99.90
22734;DHT22;11534;51.994;5.692;2023-04-30T16:04:59;18.20;99.90